No particular awareness of the weather is required.    There are no Weather-warnings


Meteo18 Weather Cam more information Meteo18 Weather Cam


Thunder radar more information blitzortung!


Rain radar more information rain snow radar


Visit our other weather sites:

Template documentation
and downloads

And another site



Weather Underground History page Text

Daily Summary for October 1, 2017 Units:  English    Metric   Both
« Previous Day
Next Day »
Daily Weekly Monthly Yearly Custom
  High: Low: Average:
Temperature: 60.3 °F 47.5 °F 53.8 °F
Dew Point: 55.9 °F 46 °F 51.4 °F
Humidity: 97 % 75 % 92 %
Wind Speed: 12 mph 0 mph 2.9 mph
Wind Gust: 15 mph - -
Wind:- - SSW
Pressure: 30.2 in 30.2 in -
Precipitation: 0.02 in    
Historical Graphs
 
 
Tabular Data for October 1, 2017
Time Temperature Dew Point Pressure Wind Wind Speed Wind Gust Humidity Rainfall Rate (Hourly)
00:02 48.7 °F 47.1 °F 30.2 in Calm   1 mph 94 % 0 in
00:12 48.7 °F 47.3 °F 30.2 in Calm   1 mph 95 % 0 in
00:17 49.1 °F 47.7 °F 30.2 in Calm     95 % 0 in
00:22 48.9 °F 47.3 °F 30.2 in Calm     94 % 0 in
00:27 48.7 °F 47.1 °F 30.2 in Calm     94 % 0 in
00:32 48.7 °F 47.3 °F 30.2 in Calm     95 % 0 in
00:42 48.4 °F 46.9 °F 30.2 in Calm     95 % 0 in
00:52 48.4 °F 46.9 °F 30.2 in Calm     95 % 0 in
01:02 47.8 °F 46.4 °F 30.2 in Calm     95 % 0 in
01:12 47.7 °F 46.2 °F 30.2 in Calm     95 % 0 in
01:17 47.7 °F 46.2 °F 30.2 in Calm     95 % 0 in
01:22 47.7 °F 46.2 °F 30.2 in Calm     95 % 0 in
01:32 47.8 °F 46.8 °F 30.2 in Calm     96 % 0 in
01:42 48 °F 46.9 °F 30.2 in Calm     96 % 0 in
01:52 47.7 °F 46.2 °F 30.2 in Calm     95 % 0 in
01:57 47.5 °F 46 °F 30.2 in Calm     95 % 0 in
02:02 47.8 °F 46.8 °F 30.2 in Calm     96 % 0 in
02:07 47.8 °F 46.8 °F 30.2 in Calm     96 % 0 in
02:12 47.8 °F 46.8 °F 30.2 in Calm     96 % 0 in
02:17 47.7 °F 46.2 °F 30.2 in Calm     95 % 0 in
02:22 47.7 °F 46.6 °F 30.2 in Calm     96 % 0 in
02:32 47.7 °F 46.6 °F 30.2 in Calm     96 % 0 in
02:42 47.8 °F 46.8 °F 30.2 in Calm     96 % 0 in
02:52 47.8 °F 46.8 °F 30.2 in Calm     96 % 0 in
02:57 47.8 °F 46.8 °F 30.2 in Calm     96 % 0 in
03:02 47.8 °F 46.8 °F 30.2 in Calm     96 % 0 in
03:12 47.7 °F 46.6 °F 30.2 in Calm     96 % 0 in
03:17 47.8 °F 46.8 °F 30.2 in Calm     96 % 0 in
03:22 47.8 °F 46.8 °F 30.2 in Calm     96 % 0 in
03:27 48 °F 46.9 °F 30.2 in Calm     96 % 0 in
03:32 48 °F 46.9 °F 30.2 in Calm     96 % 0 in
03:42 48 °F 46.9 °F 30.2 in Calm     96 % 0 in
03:47 48 °F 46.9 °F 30.2 in Calm     96 % 0 in
03:52 48 °F 46.9 °F 30.2 in Calm     96 % 0 in
04:02 48 °F 46.9 °F 30.2 in Calm     96 % 0 in
04:12 48.4 °F 47.3 °F 30.2 in Calm     96 % 0 in
04:17 48.4 °F 47.3 °F 30.2 in Calm     96 % 0 in
04:22 48.2 °F 47.1 °F 30.2 in Calm     96 % 0 in
04:27 48.4 °F 47.3 °F 30.2 in Calm     96 % 0 in
04:32 48.4 °F 47.3 °F 30.2 in Calm     96 % 0 in
04:37 48.4 °F 47.3 °F 30.2 in Calm     96 % 0 in
04:47 48.4 °F 47.3 °F 30.2 in Calm     96 % 0 in
04:52 48.2 °F 47.1 °F 30.2 in Calm     96 % 0 in
04:57 48.4 °F 47.3 °F 30.2 in Calm     96 % 0 in
05:02 48.4 °F 47.3 °F 30.2 in Calm     96 % 0 in
05:07 48.4 °F 47.3 °F 30.2 in Calm     96 % 0 in
05:12 48.4 °F 47.3 °F 30.2 in Calm     96 % 0 in
05:17 48.4 °F 47.3 °F 30.2 in Calm     96 % 0 in
05:22 48.4 °F 47.3 °F 30.2 in Calm     96 % 0 in
05:27 48.4 °F 47.3 °F 30.2 in Calm     96 % 0 in
05:32 48 °F 46.9 °F 30.2 in Calm     96 % 0 in
05:37 48 °F 46.9 °F 30.2 in Calm     96 % 0 in
05:42 48 °F 46.9 °F 30.2 in Calm     96 % 0 in
05:47 48 °F 46.9 °F 30.2 in Calm     96 % 0 in
05:52 48 °F 46.9 °F 30.2 in Calm     96 % 0 in
05:57 48.4 °F 47.3 °F 30.2 in Calm     96 % 0 in
06:02 48.4 °F 47.3 °F 30.2 in Calm     96 % 0 in
06:12 48.4 °F 47.3 °F 30.2 in Calm     96 % 0 in
06:17 48.2 °F 47.1 °F 30.2 in Calm     96 % 0 in
06:22 48.2 °F 47.1 °F 30.2 in Calm     96 % 0 in
06:27 48.2 °F 47.1 °F 30.2 in Calm     96 % 0 in
06:32 48.2 °F 47.1 °F 30.2 in Calm     96 % 0 in
06:37 48.2 °F 47.1 °F 30.2 in Calm     96 % 0 in
06:42 48.2 °F 47.1 °F 30.2 in Calm     96 % 0 in
06:47 48.2 °F 47.1 °F 30.2 in Calm     96 % 0 in
06:57 48.2 °F 47.1 °F 30.2 in Calm     96 % 0 in
07:02 48.2 °F 47.3 °F 30.2 in Calm     97 % 0 in
07:07 48 °F 46.9 °F 30.2 in Calm     96 % 0 in
07:12 48.2 °F 47.3 °F 30.2 in Calm     97 % 0 in
07:17 48 °F 47.1 °F 30.2 in Calm     97 % 0 in
07:22 48 °F 47.1 °F 30.2 in Calm     97 % 0.01 in
07:27 48 °F 47.1 °F 30.2 in Calm     97 % 0.01 in
07:32 48 °F 47.1 °F 30.2 in Calm     97 % 0.01 in
07:37 48 °F 47.1 °F 30.2 in Calm     97 % 0.01 in
07:42 48 °F 47.1 °F 30.2 in Calm     97 % 0.01 in
07:47 48 °F 47.1 °F 30.2 in Calm     97 % 0.01 in
07:57 48.2 °F 47.3 °F 30.2 in Calm     97 % 0.01 in
08:02 48.4 °F 47.5 °F 30.2 in Calm     97 % 0.01 in
08:07 48.4 °F 47.5 °F 30.2 in Calm   2 mph 97 % 0.01 in
08:12 48.4 °F 47.5 °F 30.2 in Calm   2 mph 97 % 0.01 in
08:17 48.6 °F 47.7 °F 30.2 in Calm   2 mph 97 % 0.01 in
08:22 48.6 °F 47.7 °F 30.2 in Calm     97 % 0 in
08:32 48.7 °F 47.8 °F 30.2 in Calm     97 % 0 in
08:37 48.9 °F 48 °F 30.2 in Calm     97 % 0 in
08:42 48.9 °F 48 °F 30.2 in Calm   1 mph 97 % 0 in
08:47 49.3 °F 48.4 °F 30.2 in Calm   1 mph 97 % 0 in
08:52 49.5 °F 48.6 °F 30.2 in Calm   1 mph 97 % 0 in
08:57 49.5 °F 48.6 °F 30.2 in Calm     97 % 0 in
09:02 49.6 °F 48.7 °F 30.2 in Calm     97 % 0 in
09:12 49.8 °F 48.9 °F 30.2 in Calm   1 mph 97 % 0 in
09:17 49.8 °F 48.9 °F 30.2 in Calm   1 mph 97 % 0 in
09:22 50 °F 49.1 °F 30.2 in Calm   1 mph 97 % 0 in
09:27 50.2 °F 49.3 °F 30.2 in Calm   1 mph 97 % 0 in
09:32 50.4 °F 49.5 °F 30.2 in Calm   1 mph 97 % 0 in
09:37 50.5 °F 49.6 °F 30.2 in Calm   1 mph 97 % 0 in
09:42 50.7 °F 49.8 °F 30.2 in South 3 mph 3 mph 97 % 0 in
09:47 51.1 °F 50.2 °F 30.2 in Calm   3 mph 97 % 0 in
09:52 51.3 °F 50.4 °F 30.2 in Calm   3 mph 97 % 0 in
09:57 51.6 °F 50.7 °F 30.2 in Calm   3 mph 97 % 0 in
10:02 51.8 °F 50.9 °F 30.2 in Calm   3 mph 97 % 0 in
10:12 52.3 °F 51.4 °F 30.2 in Calm   3 mph 97 % 0 in
10:17 52.5 °F 51.6 °F 30.2 in SSW 2 mph 4 mph 97 % 0 in
10:22 52.9 °F 51.8 °F 30.2 in SSW 1 mph 4 mph 96 % 0 in
10:32 53.2 °F 52.2 °F 30.2 in SSW 1 mph 4 mph 96 % 0 in
10:37 53.4 °F 52.3 °F 30.2 in South 2 mph 3 mph 96 % 0 in
10:42 53.6 °F 52.2 °F 30.2 in Calm   3 mph 95 % 0 in
10:47 53.8 °F 52.3 °F 30.2 in Calm   3 mph 95 % 0 in
10:52 54.1 °F 52.7 °F 30.2 in Calm   3 mph 95 % 0 in
11:02 54.5 °F 52.9 °F 30.2 in Calm   4 mph 94 % 0 in
11:12 55 °F 53.1 °F 30.2 in SSW 2 mph 4 mph 93 % 0 in
11:17 55.2 °F 52.9 °F 30.2 in Calm   5 mph 92 % 0 in
11:22 55.6 °F 53.2 °F 30.2 in Calm   5 mph 92 % 0 in
11:32 55.9 °F 53.4 °F 30.2 in SSE 2 mph 5 mph 91 % 0 in
11:37 56.3 °F 53.4 °F 30.2 in SSW 2 mph 5 mph 90 % 0 in
11:42 56.7 °F 53.4 °F 30.2 in SSW 3 mph 5 mph 89 % 0 in
11:47 56.7 °F 53.1 °F 30.2 in SSW 1 mph 6 mph 88 % 0 in
11:52 56.8 °F 53.2 °F 30.2 in SSE 2 mph 6 mph 88 % 0 in
11:57 57.2 °F 53.6 °F 30.2 in South 1 mph 7 mph 88 % 0 in
12:02 57.6 °F 53.8 °F 30.2 in South 2 mph 7 mph 87 % 0 in
12:07 57.7 °F 54 °F 30.2 in South 4 mph 7 mph 87 % 0 in
12:12 57.9 °F 54.1 °F 30.2 in SSW 3 mph 7 mph 87 % 0 in
12:17 58.3 °F 54.1 °F 30.2 in SSW 2 mph 7 mph 86 % 0 in
12:27 58.6 °F 54.5 °F 30.2 in SSW 4 mph 7 mph 86 % 0 in
12:32 58.8 °F 54.3 °F 30.2 in SE 3 mph 7 mph 85 % 0 in
12:37 59.2 °F 54.3 °F 30.2 in South 3 mph 9 mph 84 % 0 in
12:42 59.2 °F 53.6 °F 30.2 in SSW 9 mph 12 mph 82 % 0 in
12:52 59.2 °F 53.1 °F 30.2 in SW 9 mph 12 mph 80 % 0 in
12:57 59.4 °F 53.2 °F 30.2 in SW 5 mph 13 mph 80 % 0 in
13:02 59.4 °F 52.9 °F 30.2 in SSW 5 mph 13 mph 79 % 0 in
13:12 59.4 °F 52.9 °F 30.2 in SSW 6 mph 13 mph 79 % 0 in
13:17 59.4 °F 53.2 °F 30.2 in SSW 8 mph 13 mph 80 % 0 in
13:22 59.4 °F 52.9 °F 30.2 in SW 9 mph 13 mph 79 % 0 in
13:27 59.4 °F 53.2 °F 30.2 in SW 10 mph 12 mph 80 % 0 in
13:32 59.4 °F 53.2 °F 30.2 in SW 4 mph 13 mph 80 % 0 in
13:42 59.5 °F 53.8 °F 30.2 in SSW 8 mph 13 mph 81 % 0 in
13:47 59.7 °F 53.6 °F 30.2 in SW 3 mph 12 mph 80 % 0 in
13:52 59.7 °F 53.6 °F 30.2 in SSW 5 mph 11 mph 80 % 0 in
14:02 60.1 °F 53.2 °F 30.2 in SW 9 mph 12 mph 78 % 0 in
14:12 60.1 °F 52.2 °F 30.2 in SW 7 mph 12 mph 75 % 0 in
14:18 60.1 °F 52.9 °F 30.2 in SW 7 mph 12 mph 77 % 0 in
14:27 60.1 °F 52.9 °F 30.2 in SW 7 mph 12 mph 77 % 0 in
14:32 60.1 °F 53.2 °F 30.2 in SW 9 mph 12 mph 78 % 0 in
14:42 59.7 °F 53.2 °F 30.2 in SW 3 mph 11 mph 79 % 0 in
14:47 59.7 °F 53.6 °F 30.2 in SSW 6 mph 11 mph 80 % 0 in
14:52 59.9 °F 53.4 °F 30.2 in SW 7 mph 11 mph 79 % 0 in
14:57 59.7 °F 52.2 °F 30.2 in South 8 mph 10 mph 76 % 0 in
15:02 59.7 °F 52.9 °F 30.2 in SSW 2 mph 12 mph 78 % 0 in
15:07 59.7 °F 52.5 °F 30.2 in SW 5 mph 12 mph 77 % 0 in
15:17 60.1 °F 52.2 °F 30.2 in SSW 5 mph 12 mph 75 % 0 in
15:22 60.3 °F 52.7 °F 30.2 in SW 6 mph 12 mph 76 % 0 in
15:27 60.3 °F 53.1 °F 30.2 in SSW 6 mph 12 mph 77 % 0 in
15:32 60.3 °F 52.7 °F 30.2 in SSW 6 mph 13 mph 76 % 0 in
15:37 60.3 °F 52.7 °F 30.2 in SW 9 mph 13 mph 76 % 0 in
15:42 60.3 °F 52.7 °F 30.2 in SW 10 mph 13 mph 76 % 0 in
15:47 60.1 °F 52.2 °F 30.2 in SW 11 mph 15 mph 75 % 0 in
15:52 59.7 °F 51.8 °F 30.2 in SW 6 mph 15 mph 75 % 0 in
15:57 59.5 °F 52.7 °F 30.2 in WSW 12 mph 15 mph 78 % 0 in
16:02 59.5 °F 52.7 °F 30.2 in SW 10 mph 15 mph 78 % 0 in
16:12 59.2 °F 53.1 °F 30.2 in SW 8 mph 14 mph 80 % 0 in
16:17 59 °F 52.9 °F 30.2 in SSW 7 mph 14 mph 80 % 0 in
16:22 58.8 °F 52.7 °F 30.2 in South 7 mph 14 mph 80 % 0 in
16:27 58.6 °F 52.5 °F 30.2 in SSE 4 mph 14 mph 80 % 0 in
16:32 58.6 °F 53.4 °F 30.2 in SW 5 mph 14 mph 83 % 0 in
16:37 58.5 °F 54 °F 30.2 in SW 7 mph 12 mph 85 % 0 in
16:42 58.3 °F 53.8 °F 30.2 in SSW 7 mph 12 mph 85 % 0 in
16:47 58.1 °F 54.3 °F 30.2 in SW 7 mph 12 mph 87 % 0 in
16:52 57.7 °F 54.1 °F 30.2 in SW 8 mph 11 mph 88 % 0 in
17:02 57.2 °F 54.3 °F 30.2 in SSW 6 mph 12 mph 90 % 0 in
17:12 57.2 °F 54.7 °F 30.2 in SSW 3 mph 10 mph 91 % 0 in
17:17 57.2 °F 54.7 °F 30.2 in South 6 mph 9 mph 91 % 0 in
17:22 57.4 °F 55 °F 30.2 in SW 8 mph 9 mph 92 % 0 in
17:32 57.2 °F 54.9 °F 30.2 in SW 4 mph 10 mph 92 % 0 in
17:42 57.2 °F 54.9 °F 30.2 in SSW 7 mph 10 mph 92 % 0 in
17:47 57.4 °F 55.4 °F 30.2 in SW 5 mph 10 mph 93 % 0 in
17:52 57.4 °F 55.4 °F 30.2 in SW 4 mph 10 mph 93 % 0 in
17:57 57.6 °F 55.6 °F 30.2 in SW 6 mph 9 mph 93 % 0 in
18:02 57.4 °F 55.4 °F 30.2 in SW 7 mph 8 mph 93 % 0 in
18:07 57.4 °F 55.4 °F 30.2 in South 3 mph 10 mph 93 % 0 in
18:12 57.4 °F 55.6 °F 30.2 in SSW 4 mph 10 mph 94 % 0 in
18:17 57.4 °F 55.6 °F 30.2 in SW 8 mph 10 mph 94 % 0 in
18:22 57.2 °F 55.4 °F 30.2 in South 8 mph 10 mph 94 % 0 in
18:27 57 °F 55.2 °F 30.2 in SW 6 mph 13 mph 94 % 0 in
18:32 57 °F 55.2 °F 30.2 in SSW 5 mph 13 mph 94 % 0 in
18:37 57 °F 55.6 °F 30.2 in SSW 7 mph 13 mph 95 % 0 in
18:42 57 °F 55.6 °F 30.2 in South 5 mph 13 mph 95 % 0 in
18:47 56.8 °F 55.4 °F 30.2 in SSW 6 mph 13 mph 95 % 0 in
18:52 56.8 °F 55.4 °F 30.2 in South 3 mph 10 mph 95 % 0 in
19:02 56.8 °F 55.4 °F 30.2 in SW 5 mph 10 mph 95 % 0 in
19:12 56.8 °F 55.8 °F 30.2 in SW 6 mph 11 mph 96 % 0 in
19:17 56.8 °F 55.8 °F 30.2 in SSW 4 mph 11 mph 96 % 0 in
19:22 56.8 °F 55.8 °F 30.2 in SW 7 mph 11 mph 96 % 0 in
19:27 56.8 °F 55.8 °F 30.2 in SW 4 mph 9 mph 96 % 0 in
19:32 56.8 °F 55.8 °F 30.2 in SW 7 mph 9 mph 96 % 0 in
19:37 56.8 °F 55.8 °F 30.2 in SSW 5 mph 12 mph 96 % 0 in
19:42 56.7 °F 55.6 °F 30.2 in SW 9 mph 12 mph 96 % 0 in
19:47 56.7 °F 55.6 °F 30.2 in SSW 4 mph 12 mph 96 % 0 in
19:52 56.7 °F 55.6 °F 30.2 in SW 3 mph 11 mph 96 % 0 in
19:57 56.7 °F 55.6 °F 30.2 in SSW 5 mph 11 mph 96 % 0 in
20:02 56.7 °F 55.6 °F 30.2 in South 6 mph 9 mph 96 % 0 in
20:07 56.7 °F 55.6 °F 30.2 in SSW 4 mph 8 mph 96 % 0 in
20:12 56.7 °F 55.6 °F 30.2 in SSW 7 mph 9 mph 96 % 0 in
20:17 56.7 °F 55.6 °F 30.2 in SW 4 mph 9 mph 96 % 0 in
20:22 56.7 °F 55.6 °F 30.2 in SSW 6 mph 9 mph 96 % 0 in
20:27 56.7 °F 55.6 °F 30.2 in SSW 6 mph 8 mph 96 % 0 in
20:32 56.7 °F 55.6 °F 30.2 in SSW 4 mph 8 mph 96 % 0 in
20:37 56.7 °F 55.6 °F 30.2 in SSW 5 mph 8 mph 96 % 0 in
20:42 56.7 °F 55.6 °F 30.2 in SSW 2 mph 8 mph 96 % 0 in
20:52 56.8 °F 55.8 °F 30.2 in SW 6 mph 9 mph 96 % 0 in
20:57 56.8 °F 55.8 °F 30.2 in SW 2 mph 8 mph 96 % 0 in
21:02 56.8 °F 55.8 °F 30.2 in SSW 3 mph 8 mph 96 % 0 in
21:07 56.8 °F 55.8 °F 30.2 in SSW 3 mph 8 mph 96 % 0 in
21:12 56.8 °F 55.8 °F 30.2 in SW 2 mph 7 mph 96 % 0 in
21:17 56.8 °F 55.8 °F 30.2 in SSW 2 mph 7 mph 96 % 0 in
21:22 56.8 °F 55.8 °F 30.2 in SW 3 mph 7 mph 96 % 0 in
21:27 56.8 °F 55.8 °F 30.2 in SW 4 mph 8 mph 96 % 0 in
21:32 57 °F 55.9 °F 30.2 in SW 3 mph 10 mph 96 % 0 in
21:37 57 °F 55.9 °F 30.2 in SW 2 mph 10 mph 96 % 0 in
21:42 57 °F 55.9 °F 30.2 in SW 3 mph 7 mph 96 % 0 in
21:47 57 °F 55.9 °F 30.2 in SSW 3 mph 7 mph 96 % 0 in
21:52 57 °F 55.6 °F 30.2 in SW 5 mph 7 mph 95 % 0 in
21:57 57 °F 55.9 °F 30.2 in SW 5 mph 10 mph 96 % 0 in
22:02 57 °F 55.9 °F 30.2 in SW 5 mph 10 mph 96 % 0 in
22:07 57 °F 55.9 °F 30.2 in SSW 6 mph 10 mph 96 % 0 in
22:12 57 °F 55.9 °F 30.2 in SW 7 mph 8 mph 96 % 0 in
22:17 57 °F 55.9 °F 30.2 in SSW 4 mph 8 mph 96 % 0 in
22:22 57 °F 55.9 °F 30.2 in SW 4 mph 9 mph 96 % 0 in
22:32 57 °F 55.9 °F 30.2 in SSW 5 mph 9 mph 96 % 0 in
22:42 57 °F 55.9 °F 30.2 in SSW 2 mph 9 mph 96 % 0.01 in
22:47 56.8 °F 55.8 °F 30.2 in SW 5 mph 9 mph 96 % 0.01 in
22:52 56.8 °F 55.8 °F 30.2 in South 3 mph 8 mph 96 % 0.01 in
22:57 56.8 °F 55.8 °F 30.2 in SSW 1 mph 8 mph 96 % 0.02 in
23:02 56.8 °F 55.8 °F 30.2 in SSW 3 mph 7 mph 96 % 0.02 in
23:12 56.8 °F 55.8 °F 30.2 in SW 4 mph 7 mph 96 % 0.02 in
23:17 56.8 °F 55.8 °F 30.2 in SSW 6 mph 7 mph 96 % 0.02 in
23:22 56.8 °F 55.8 °F 30.2 in South 3 mph 7 mph 96 % 0.02 in
23:27 56.8 °F 55.8 °F 30.2 in SSW 4 mph 8 mph 96 % 0.02 in
23:32 56.8 °F 55.8 °F 30.2 in SSW 4 mph 11 mph 96 % 0.02 in
23:37 56.8 °F 55.9 °F 30.2 in SW 4 mph 11 mph 97 % 0.01 in
23:42 56.8 °F 55.9 °F 30.2 in SW 4 mph 11 mph 97 % 0.01 in
23:47 56.8 °F 55.9 °F 30.2 in SW 6 mph 8 mph 97 % 0.01 in
23:52 56.8 °F 55.9 °F 30.2 in SW 4 mph 10 mph 97 % 0.01 in
23:57 56.8 °F 55.9 °F 30.2 in SSW 7 mph 11 mph 97 % 0 in
Meteo18
Compliments of Weather Underground - 4 mb

Script developed by  Jim McMurry - jmcmurry@mwt.net Adapted for the template by  Wim van der Kuil - Leuven-Template.eu

You find our weather info also at:

European Weather Network

Weather Underground

Equipment we use:

Weather-station
Davis Vue

Weather-program
Meteohub

Weather-server
Raspberry PI 2 B+

Provider
1 and 1

Davis Vue

Meteohub

Raspberry PI 2 B+

1 and 1